Search for airport 
image banner adimage banner adimage banner ad
image banner ad

PN54 - Akm Airfield

Located in Columia Cross Roads, United States

ICAO - PN54, IATA -

Data provided by Airmate  

General information

Coordinates: N41°50'30" W76°44'45"
Elevation is 1393 feet MSL.
Magnetic variation is -12° East
View others Airports in Pennsylvania

Operational data

Special qualification required
Current time UTC:
Current local time:
Weather at : KELM - Elmira/Corning Rgnl ( 37 km )
METAR: KELM 091653Z 00000KT 10SM BKN044 OVC055 12/06 A2996 RMK AO2 SLP148 T01170056 $
TAF: KELM 091120Z 0912/1012 VRB03KT P6SM BKN100 FM091300 21004KT P6SM FEW100 FM091800 18006KT 4SM RA BR OVC018 FM092100 15005KT 2SM SHRA BR OVC010 FM100900 33005KT 6SM BR OVC010
View NOTAMs / SUP AIP / TFR affecting this airport [VIEW]
Communications frequencies: [VIEW]

Runways:

RWY identifierQFULength (ft)Width (ft)SurfaceLDA (ft)
182100100GRASS
362100100GRASS

Airport contact information

Address: Columia Cross Roads United States

Satellite view of PN54